sensor_id;sensor_type;location;lat;lon;timestamp;pressure;altitude;pressure_sealevel;temperature;humidity
77011;BME280;65945;53.148;17.956;2022-12-29T00:00:13;100527.20;;;6.29;79.16
77011;BME280;65945;53.148;17.956;2022-12-29T00:03:00;100521.54;;;6.25;79.07
77011;BME280;65945;53.148;17.956;2022-12-29T00:05:27;100521.25;;;6.22;79.50
77011;BME280;65945;53.148;17.956;2022-12-29T00:07:54;100518.13;;;6.18;79.46
77011;BME280;65945;53.148;17.956;2022-12-29T00:10:20;100509.77;;;6.17;79.17
77011;BME280;65945;53.148;17.956;2022-12-29T00:12:47;100504.20;;;6.18;79.37
77011;BME280;65945;53.148;17.956;2022-12-29T00:15:32;100509.30;;;6.17;79.11
77011;BME280;65945;53.148;17.956;2022-12-29T00:18:06;100506.70;;;6.16;79.24
77011;BME280;65945;53.148;17.956;2022-12-29T00:20:37;100505.70;;;6.16;79.25
77011;BME280;65945;53.148;17.956;2022-12-29T00:23:22;100503.15;;;6.15;79.35
77011;BME280;65945;53.148;17.956;2022-12-29T00:26:24;100503.67;;;6.15;79.62
77011;BME280;65945;53.148;17.956;2022-12-29T00:29:10;100502.02;;;6.13;79.53
77011;BME280;65945;53.148;17.956;2022-12-29T00:31:55;100496.01;;;6.10;80.23
77011;BME280;65945;53.148;17.956;2022-12-29T00:34:40;100493.88;;;6.06;80.14
77011;BME280;65945;53.148;17.956;2022-12-29T00:37:26;100497.61;;;6.03;79.91
77011;BME280;65945;53.148;17.956;2022-12-29T00:40:13;100491.52;;;6.01;80.47
77011;BME280;65945;53.148;17.956;2022-12-29T00:43:00;100492.31;;;6.01;80.43
77011;BME280;65945;53.148;17.956;2022-12-29T00:45:45;100496.27;;;6.01;80.62
77011;BME280;65945;53.148;17.956;2022-12-29T00:48:12;100494.02;;;6.00;80.66
77011;BME280;65945;53.148;17.956;2022-12-29T00:50:38;100494.35;;;6.00;80.36
77011;BME280;65945;53.148;17.956;2022-12-29T00:53:05;100494.15;;;6.03;80.33
77011;BME280;65945;53.148;17.956;2022-12-29T00:55:36;100492.79;;;6.05;80.51
77011;BME280;65945;53.148;17.956;2022-12-29T00:58:02;100502.09;;;6.06;80.63
77011;BME280;65945;53.148;17.956;2022-12-29T01:00:29;100506.20;;;6.05;80.40
77011;BME280;65945;53.148;17.956;2022-12-29T01:02:56;100507.05;;;6.02;80.63
77011;BME280;65945;53.148;17.956;2022-12-29T01:05:22;100506.54;;;6.00;80.67
77011;BME280;65945;53.148;17.956;2022-12-29T01:07:49;100507.02;;;6.03;80.70
77011;BME280;65945;53.148;17.956;2022-12-29T01:10:15;100511.45;;;6.05;80.54
77011;BME280;65945;53.148;17.956;2022-12-29T01:12:42;100514.89;;;6.06;80.55
77011;BME280;65945;53.148;17.956;2022-12-29T01:15:13;100512.49;;;6.07;80.57
77011;BME280;65945;53.148;17.956;2022-12-29T01:17:42;100502.19;;;6.07;80.62
77011;BME280;65945;53.148;17.956;2022-12-29T01:20:09;100499.64;;;6.06;80.73
77011;BME280;65945;53.148;17.956;2022-12-29T01:22:37;100486.15;;;6.03;80.67
77011;BME280;65945;53.148;17.956;2022-12-29T01:25:04;100487.42;;;6.02;80.47
77011;BME280;65945;53.148;17.956;2022-12-29T01:27:31;100488.27;;;6.00;80.84
77011;BME280;65945;53.148;17.956;2022-12-29T01:29:57;100491.39;;;6.00;80.62
77011;BME280;65945;53.148;17.956;2022-12-29T01:32:24;100480.65;;;5.99;80.38
77011;BME280;65945;53.148;17.956;2022-12-29T01:34:51;100486.07;;;5.98;80.26
77011;BME280;65945;53.148;17.956;2022-12-29T01:37:17;100489.46;;;5.98;80.47
77011;BME280;65945;53.148;17.956;2022-12-29T01:39:44;100477.66;;;5.98;80.39
77011;BME280;65945;53.148;17.956;2022-12-29T01:42:19;100469.64;;;6.01;80.32
77011;BME280;65945;53.148;17.956;2022-12-29T01:44:54;100473.02;;;6.00;80.13
77011;BME280;65945;53.148;17.956;2022-12-29T01:50:41;100467.14;;;5.97;80.49
77011;BME280;65945;53.148;17.956;2022-12-29T01:53:13;100464.31;;;5.95;80.25
77011;BME280;65945;53.148;17.956;2022-12-29T01:56:03;100455.67;;;5.95;80.39
77011;BME280;65945;53.148;17.956;2022-12-29T01:58:34;100442.80;;;5.95;80.36
77011;BME280;65945;53.148;17.956;2022-12-29T02:01:04;100436.70;;;5.95;80.71
77011;BME280;65945;53.148;17.956;2022-12-29T02:03:32;100429.58;;;5.95;80.29
77011;BME280;65945;53.148;17.956;2022-12-29T02:06:05;100427.25;;;5.97;80.04
77011;BME280;65945;53.148;17.956;2022-12-29T02:08:36;100425.21;;;6.00;80.02
77011;BME280;65945;53.148;17.956;2022-12-29T02:11:04;100420.80;;;5.99;80.08
77011;BME280;65945;53.148;17.956;2022-12-29T02:13:34;100416.23;;;5.98;80.10
77011;BME280;65945;53.148;17.956;2022-12-29T02:24:36;100400.34;;;6.00;79.85
77011;BME280;65945;53.148;17.956;2022-12-29T02:27:36;100396.80;;;6.02;80.05
77011;BME280;65945;53.148;17.956;2022-12-29T02:30:49;100391.80;;;6.05;80.06
77011;BME280;65945;53.148;17.956;2022-12-29T02:33:23;100380.25;;;6.09;79.70
77011;BME280;65945;53.148;17.956;2022-12-29T02:36:07;100371.56;;;6.12;79.44
77011;BME280;65945;53.148;17.956;2022-12-29T02:38:45;100372.33;;;6.15;79.65
77011;BME280;65945;53.148;17.956;2022-12-29T02:41:56;100376.18;;;6.16;79.28
77011;BME280;65945;53.148;17.956;2022-12-29T02:44:29;100370.19;;;6.16;79.56
77011;BME280;65945;53.148;17.956;2022-12-29T02:47:05;100365.81;;;6.15;79.56
77011;BME280;65945;53.148;17.956;2022-12-29T02:49:42;100361.80;;;6.15;79.19
77011;BME280;65945;53.148;17.956;2022-12-29T02:52:16;100359.69;;;6.18;79.41
77011;BME280;65945;53.148;17.956;2022-12-29T02:54:44;100359.87;;;6.20;79.24
77011;BME280;65945;53.148;17.956;2022-12-29T02:57:26;100355.30;;;6.22;79.15
77011;BME280;65945;53.148;17.956;2022-12-29T03:02:58;100355.39;;;6.25;79.12
77011;BME280;65945;53.148;17.956;2022-12-29T03:05:56;100352.13;;;6.25;79.06
77011;BME280;65945;53.148;17.956;2022-12-29T03:09:18;100350.70;;;6.23;79.05
77011;BME280;65945;53.148;17.956;2022-12-29T03:11:28;100350.27;;;6.21;79.18
77011;BME280;65945;53.148;17.956;2022-12-29T03:14:27;100347.67;;;6.23;78.97
77011;BME280;65945;53.148;17.956;2022-12-29T03:17:28;100350.91;;;6.24;78.89
77011;BME280;65945;53.148;17.956;2022-12-29T03:20:05;100344.61;;;6.26;79.10
77011;BME280;65945;53.148;17.956;2022-12-29T03:22:41;100347.53;;;6.28;79.19
77011;BME280;65945;53.148;17.956;2022-12-29T03:25:24;100343.55;;;6.29;79.40
77011;BME280;65945;53.148;17.956;2022-12-29T03:27:58;100339.73;;;6.28;79.16
77011;BME280;65945;53.148;17.956;2022-12-29T03:30:32;100341.77;;;6.28;79.18
77011;BME280;65945;53.148;17.956;2022-12-29T03:33:03;100341.11;;;6.26;79.16
77011;BME280;65945;53.148;17.956;2022-12-29T03:35:35;100339.55;;;6.25;79.30
77011;BME280;65945;53.148;17.956;2022-12-29T03:38:17;100340.63;;;6.26;79.50
77011;BME280;65945;53.148;17.956;2022-12-29T03:40:48;100341.70;;;6.26;79.51
77011;BME280;65945;53.148;17.956;2022-12-29T03:43:17;100338.95;;;6.26;79.28
77011;BME280;65945;53.148;17.956;2022-12-29T03:45:44;100338.11;;;6.27;79.25
77011;BME280;65945;53.148;17.956;2022-12-29T03:48:11;100340.23;;;6.30;79.26
77011;BME280;65945;53.148;17.956;2022-12-29T03:50:38;100338.38;;;6.31;79.15
77011;BME280;65945;53.148;17.956;2022-12-29T03:53:05;100335.02;;;6.32;79.46
77011;BME280;65945;53.148;17.956;2022-12-29T03:55:32;100334.48;;;6.32;79.32
77011;BME280;65945;53.148;17.956;2022-12-29T03:57:59;100336.89;;;6.32;79.43
77011;BME280;65945;53.148;17.956;2022-12-29T04:00:44;100335.13;;;6.29;79.44
77011;BME280;65945;53.148;17.956;2022-12-29T04:03:10;100333.17;;;6.27;79.52
77011;BME280;65945;53.148;17.956;2022-12-29T04:05:37;100324.05;;;6.25;79.54
77011;BME280;65945;53.148;17.956;2022-12-29T04:08:05;100319.80;;;6.25;79.38
77011;BME280;65945;53.148;17.956;2022-12-29T04:10:31;100312.23;;;6.26;79.50
77011;BME280;65945;53.148;17.956;2022-12-29T04:13:00;100316.17;;;6.25;79.36
77011;BME280;65945;53.148;17.956;2022-12-29T04:15:26;100315.39;;;6.27;79.54
77011;BME280;65945;53.148;17.956;2022-12-29T04:17:53;100313.22;;;6.28;79.24
77011;BME280;65945;53.148;17.956;2022-12-29T04:20:20;100308.41;;;6.29;79.35
77011;BME280;65945;53.148;17.956;2022-12-29T04:23:07;100303.02;;;6.31;79.37
77011;BME280;65945;53.148;17.956;2022-12-29T04:25:35;100304.70;;;6.32;79.35
77011;BME280;65945;53.148;17.956;2022-12-29T04:28:02;100300.82;;;6.33;79.07
77011;BME280;65945;53.148;17.956;2022-12-29T04:30:45;100299.59;;;6.35;79.03
77011;BME280;65945;53.148;17.956;2022-12-29T04:33:17;100296.34;;;6.36;79.05
77011;BME280;65945;53.148;17.956;2022-12-29T04:35:44;100299.66;;;6.35;79.65
77011;BME280;65945;53.148;17.956;2022-12-29T04:38:12;100294.33;;;6.35;79.33
77011;BME280;65945;53.148;17.956;2022-12-29T04:40:40;100295.95;;;6.33;79.32
77011;BME280;65945;53.148;17.956;2022-12-29T04:43:09;100297.85;;;6.31;79.10
77011;BME280;65945;53.148;17.956;2022-12-29T04:45:51;100299.38;;;6.31;79.49
77011;BME280;65945;53.148;17.956;2022-12-29T04:48:29;100296.55;;;6.31;79.13
77011;BME280;65945;53.148;17.956;2022-12-29T04:51:28;100291.38;;;6.30;79.24
77011;BME280;65945;53.148;17.956;2022-12-29T04:53:54;100294.06;;;6.31;79.24
77011;BME280;65945;53.148;17.956;2022-12-29T04:56:21;100288.26;;;6.32;78.93
77011;BME280;65945;53.148;17.956;2022-12-29T04:58:48;100289.86;;;6.35;79.19
77011;BME280;65945;53.148;17.956;2022-12-29T05:01:14;100293.81;;;6.35;79.08
77011;BME280;65945;53.148;17.956;2022-12-29T05:03:41;100294.98;;;6.36;79.34
77011;BME280;65945;53.148;17.956;2022-12-29T05:06:08;100295.95;;;6.35;79.27
77011;BME280;65945;53.148;17.956;2022-12-29T05:08:35;100294.81;;;6.36;79.29
77011;BME280;65945;53.148;17.956;2022-12-29T05:11:02;100299.06;;;6.36;79.15
77011;BME280;65945;53.148;17.956;2022-12-29T05:13:29;100292.60;;;6.35;79.18
77011;BME280;65945;53.148;17.956;2022-12-29T05:15:56;100294.29;;;6.36;79.07
77011;BME280;65945;53.148;17.956;2022-12-29T05:18:23;100292.42;;;6.37;79.12
77011;BME280;65945;53.148;17.956;2022-12-29T05:20:50;100294.30;;;6.40;79.19
77011;BME280;65945;53.148;17.956;2022-12-29T05:23:18;100284.66;;;6.43;78.77
77011;BME280;65945;53.148;17.956;2022-12-29T05:25:49;100272.17;;;6.46;79.28
77011;BME280;65945;53.148;17.956;2022-12-29T05:28:24;100267.20;;;6.48;79.08
77011;BME280;65945;53.148;17.956;2022-12-29T05:31:09;100264.06;;;6.49;78.85
77011;BME280;65945;53.148;17.956;2022-12-29T05:33:36;100261.34;;;6.49;79.01
77011;BME280;65945;53.148;17.956;2022-12-29T05:36:04;100256.59;;;6.48;78.85
77011;BME280;65945;53.148;17.956;2022-12-29T05:38:31;100255.64;;;6.47;78.97
77011;BME280;65945;53.148;17.956;2022-12-29T05:40:57;100251.20;;;6.48;78.85
77011;BME280;65945;53.148;17.956;2022-12-29T05:43:47;100240.42;;;6.50;78.99
77011;BME280;65945;53.148;17.956;2022-12-29T05:46:34;100232.66;;;6.52;78.56
77011;BME280;65945;53.148;17.956;2022-12-29T05:49:27;100230.98;;;6.54;78.33
77011;BME280;65945;53.148;17.956;2022-12-29T05:52:07;100231.23;;;6.57;78.57
77011;BME280;65945;53.148;17.956;2022-12-29T05:54:34;100227.50;;;6.60;78.43
77011;BME280;65945;53.148;17.956;2022-12-29T05:57:02;100222.53;;;6.61;78.59
77011;BME280;65945;53.148;17.956;2022-12-29T05:59:30;100223.33;;;6.63;78.36
77011;BME280;65945;53.148;17.956;2022-12-29T06:01:57;100222.55;;;6.62;78.34
77011;BME280;65945;53.148;17.956;2022-12-29T06:04:24;100225.33;;;6.63;78.41
77011;BME280;65945;53.148;17.956;2022-12-29T06:06:50;100225.83;;;6.62;78.17
77011;BME280;65945;53.148;17.956;2022-12-29T06:09:26;100225.58;;;6.64;78.06
77011;BME280;65945;53.148;17.956;2022-12-29T06:11:53;100229.05;;;6.66;78.31
77011;BME280;65945;53.148;17.956;2022-12-29T06:14:20;100236.56;;;6.68;78.09
77011;BME280;65945;53.148;17.956;2022-12-29T06:16:47;100246.73;;;6.71;77.99
77011;BME280;65945;53.148;17.956;2022-12-29T06:19:14;100238.98;;;6.73;77.70
77011;BME280;65945;53.148;17.956;2022-12-29T06:21:40;100241.02;;;6.75;77.84
77011;BME280;65945;53.148;17.956;2022-12-29T06:24:08;100235.48;;;6.75;77.69
77011;BME280;65945;53.148;17.956;2022-12-29T06:26:37;100230.39;;;6.75;77.36
77011;BME280;65945;53.148;17.956;2022-12-29T06:29:03;100225.61;;;6.75;77.63
77011;BME280;65945;53.148;17.956;2022-12-29T06:31:30;100220.27;;;6.74;77.49
77011;BME280;65945;53.148;17.956;2022-12-29T06:33:57;100224.42;;;6.74;77.35
77011;BME280;65945;53.148;17.956;2022-12-29T06:36:24;100223.95;;;6.75;77.32
77011;BME280;65945;53.148;17.956;2022-12-29T06:38:50;100228.94;;;6.77;77.16
77011;BME280;65945;53.148;17.956;2022-12-29T06:41:20;100236.79;;;6.79;77.16
77011;BME280;65945;53.148;17.956;2022-12-29T06:44:10;100239.39;;;6.81;77.03
77011;BME280;65945;53.148;17.956;2022-12-29T06:46:50;100238.59;;;6.85;77.11
77011;BME280;65945;53.148;17.956;2022-12-29T06:49:17;100241.29;;;6.89;76.90
77011;BME280;65945;53.148;17.956;2022-12-29T06:51:43;100247.60;;;6.91;76.93
77011;BME280;65945;53.148;17.956;2022-12-29T06:54:10;100245.41;;;6.92;77.02
77011;BME280;65945;53.148;17.956;2022-12-29T06:56:37;100248.84;;;6.93;76.49
77011;BME280;65945;53.148;17.956;2022-12-29T06:59:04;100245.52;;;6.93;76.40
77011;BME280;65945;53.148;17.956;2022-12-29T07:01:31;100240.90;;;6.91;76.39
77011;BME280;65945;53.148;17.956;2022-12-29T07:03:58;100242.66;;;6.92;76.63
77011;BME280;65945;53.148;17.956;2022-12-29T07:06:24;100238.97;;;6.93;76.45
77011;BME280;65945;53.148;17.956;2022-12-29T07:08:51;100242.66;;;6.97;75.97
77011;BME280;65945;53.148;17.956;2022-12-29T07:11:21;100245.83;;;7.01;76.08
77011;BME280;65945;53.148;17.956;2022-12-29T07:13:48;100249.80;;;7.05;75.94
77011;BME280;65945;53.148;17.956;2022-12-29T07:16:14;100253.65;;;7.06;76.18
77011;BME280;65945;53.148;17.956;2022-12-29T07:18:41;100253.79;;;7.06;75.84
77011;BME280;65945;53.148;17.956;2022-12-29T07:21:08;100247.02;;;7.06;76.05
77011;BME280;65945;53.148;17.956;2022-12-29T07:23:34;100242.44;;;7.07;75.82
77011;BME280;65945;53.148;17.956;2022-12-29T07:26:06;100248.38;;;7.08;75.79
77011;BME280;65945;53.148;17.956;2022-12-29T07:28:36;100253.16;;;7.08;75.70
77011;BME280;65945;53.148;17.956;2022-12-29T07:31:05;100254.20;;;7.10;75.67
77011;BME280;65945;53.148;17.956;2022-12-29T07:33:32;100252.17;;;7.13;75.36
77011;BME280;65945;53.148;17.956;2022-12-29T07:35:59;100250.45;;;7.16;75.76
77011;BME280;65945;53.148;17.956;2022-12-29T07:38:26;100242.67;;;7.18;75.46
77011;BME280;65945;53.148;17.956;2022-12-29T07:40:56;100243.30;;;7.19;75.40
77011;BME280;65945;53.148;17.956;2022-12-29T07:43:23;100245.14;;;7.17;75.14
77011;BME280;65945;53.148;17.956;2022-12-29T07:46:13;100239.16;;;7.15;75.43
77011;BME280;65945;53.148;17.956;2022-12-29T07:48:39;100237.45;;;7.14;75.40
77011;BME280;65945;53.148;17.956;2022-12-29T07:51:06;100235.07;;;7.13;75.46
77011;BME280;65945;53.148;17.956;2022-12-29T07:53:32;100234.17;;;7.10;75.11
77011;BME280;65945;53.148;17.956;2022-12-29T07:55:59;100231.55;;;7.09;75.09
77011;BME280;65945;53.148;17.956;2022-12-29T07:58:26;100224.10;;;7.12;75.37
77011;BME280;65945;53.148;17.956;2022-12-29T08:00:55;100218.35;;;7.15;75.51
77011;BME280;65945;53.148;17.956;2022-12-29T08:03:23;100217.72;;;7.20;75.32
77011;BME280;65945;53.148;17.956;2022-12-29T08:05:51;100219.07;;;7.22;75.20
77011;BME280;65945;53.148;17.956;2022-12-29T08:08:18;100224.81;;;7.24;75.11
77011;BME280;65945;53.148;17.956;2022-12-29T08:10:46;100237.20;;;7.26;74.99
77011;BME280;65945;53.148;17.956;2022-12-29T08:13:12;100241.91;;;7.29;74.99
77011;BME280;65945;53.148;17.956;2022-12-29T08:15:39;100240.20;;;7.30;74.82
77011;BME280;65945;53.148;17.956;2022-12-29T08:18:06;100243.48;;;7.33;75.34
77011;BME280;65945;53.148;17.956;2022-12-29T08:20:32;100237.30;;;7.34;74.91
77011;BME280;65945;53.148;17.956;2022-12-29T08:22:59;100237.32;;;7.38;74.66
77011;BME280;65945;53.148;17.956;2022-12-29T08:25:26;100234.14;;;7.44;75.00
77011;BME280;65945;53.148;17.956;2022-12-29T08:27:52;100229.90;;;7.53;74.93
77011;BME280;65945;53.148;17.956;2022-12-29T08:30:19;100234.10;;;7.63;74.57
77011;BME280;65945;53.148;17.956;2022-12-29T08:32:45;100234.92;;;7.68;74.31
77011;BME280;65945;53.148;17.956;2022-12-29T08:35:12;100241.19;;;7.71;74.28
77011;BME280;65945;53.148;17.956;2022-12-29T08:37:39;100245.72;;;7.73;74.37
77011;BME280;65945;53.148;17.956;2022-12-29T08:40:06;100246.69;;;7.75;73.83
77011;BME280;65945;53.148;17.956;2022-12-29T08:42:33;100244.48;;;7.78;74.39
77011;BME280;65945;53.148;17.956;2022-12-29T08:45:00;100255.14;;;7.81;74.30
77011;BME280;65945;53.148;17.956;2022-12-29T08:47:27;100266.91;;;7.84;74.08
77011;BME280;65945;53.148;17.956;2022-12-29T08:49:54;100266.86;;;7.85;73.87
77011;BME280;65945;53.148;17.956;2022-12-29T08:52:20;100263.05;;;7.87;74.02
77011;BME280;65945;53.148;17.956;2022-12-29T08:54:47;100263.80;;;7.93;74.02
77011;BME280;65945;53.148;17.956;2022-12-29T08:57:14;100260.28;;;7.98;73.69
77011;BME280;65945;53.148;17.956;2022-12-29T09:00:07;100254.89;;;8.01;73.75
77011;BME280;65945;53.148;17.956;2022-12-29T09:02:33;100250.94;;;8.04;73.41
77011;BME280;65945;53.148;17.956;2022-12-29T09:05:00;100244.05;;;8.06;73.86
77011;BME280;65945;53.148;17.956;2022-12-29T09:07:27;100243.79;;;8.08;73.39
77011;BME280;65945;53.148;17.956;2022-12-29T09:09:53;100240.23;;;8.09;73.49
77011;BME280;65945;53.148;17.956;2022-12-29T09:12:20;100239.90;;;8.10;73.53
77011;BME280;65945;53.148;17.956;2022-12-29T09:14:47;100237.26;;;8.12;72.87
77011;BME280;65945;53.148;17.956;2022-12-29T09:17:13;100231.13;;;8.13;73.06
77011;BME280;65945;53.148;17.956;2022-12-29T09:19:59;100242.19;;;8.17;72.99
77011;BME280;65945;53.148;17.956;2022-12-29T09:22:25;100245.66;;;8.18;72.85
77011;BME280;65945;53.148;17.956;2022-12-29T09:24:52;100248.46;;;8.21;73.02
77011;BME280;65945;53.148;17.956;2022-12-29T09:27:18;100239.88;;;8.22;72.77
77011;BME280;65945;53.148;17.956;2022-12-29T09:29:45;100239.88;;;8.22;72.93
77011;BME280;65945;53.148;17.956;2022-12-29T09:32:12;100237.45;;;8.22;72.89
77011;BME280;65945;53.148;17.956;2022-12-29T09:34:38;100237.36;;;8.21;72.56
77011;BME280;65945;53.148;17.956;2022-12-29T09:37:05;100234.45;;;8.21;72.79
77011;BME280;65945;53.148;17.956;2022-12-29T09:39:31;100235.37;;;8.21;72.91
77011;BME280;65945;53.148;17.956;2022-12-29T09:45:05;100227.58;;;8.31;72.88
77011;BME280;65945;53.148;17.956;2022-12-29T09:47:35;100220.77;;;8.40;72.54
77011;BME280;65945;53.148;17.956;2022-12-29T09:53:18;100214.69;;;8.50;72.07
77011;BME280;65945;53.148;17.956;2022-12-29T09:55:50;100215.38;;;8.53;72.21
77011;BME280;65945;53.148;17.956;2022-12-29T09:58:29;100209.20;;;8.56;72.28
77011;BME280;65945;53.148;17.956;2022-12-29T10:01:14;100214.77;;;8.60;72.31
77011;BME280;65945;53.148;17.956;2022-12-29T10:03:51;100218.20;;;8.63;71.79
77011;BME280;65945;53.148;17.956;2022-12-29T10:06:41;100222.23;;;8.63;71.78
77011;BME280;65945;53.148;17.956;2022-12-29T10:21:22;100206.80;;;8.75;70.84
77011;BME280;65945;53.148;17.956;2022-12-29T10:23:52;100204.70;;;8.77;71.25
77011;BME280;65945;53.148;17.956;2022-12-29T10:26:23;100203.50;;;8.77;71.23
77011;BME280;65945;53.148;17.956;2022-12-29T10:29:06;100202.52;;;8.78;71.24
77011;BME280;65945;53.148;17.956;2022-12-29T10:31:37;100203.43;;;8.78;70.77
77011;BME280;65945;53.148;17.956;2022-12-29T10:34:16;100204.63;;;8.80;71.22
77011;BME280;65945;53.148;17.956;2022-12-29T10:36:48;100202.65;;;8.84;71.28
77011;BME280;65945;53.148;17.956;2022-12-29T10:39:18;100200.80;;;8.90;71.40
77011;BME280;65945;53.148;17.956;2022-12-29T10:41:49;100190.33;;;8.93;71.27
77011;BME280;65945;53.148;17.956;2022-12-29T10:44:18;100190.60;;;8.95;71.36
77011;BME280;65945;53.148;17.956;2022-12-29T10:46:56;100198.98;;;8.98;71.23
77011;BME280;65945;53.148;17.956;2022-12-29T10:49:26;100195.78;;;8.99;71.12
77011;BME280;65945;53.148;17.956;2022-12-29T10:51:57;100192.42;;;8.98;71.10
77011;BME280;65945;53.148;17.956;2022-12-29T10:54:32;100185.52;;;8.96;70.82
77011;BME280;65945;53.148;17.956;2022-12-29T10:59:42;100187.33;;;8.95;71.36
77011;BME280;65945;53.148;17.956;2022-12-29T11:07:10;100182.64;;;8.97;71.29
77011;BME280;65945;53.148;17.956;2022-12-29T11:09:38;100190.50;;;9.01;71.12
77011;BME280;65945;53.148;17.956;2022-12-29T11:12:25;100187.05;;;9.04;71.00
77011;BME280;65945;53.148;17.956;2022-12-29T11:15:14;100187.56;;;9.07;70.86
77011;BME280;65945;53.148;17.956;2022-12-29T11:17:53;100181.20;;;9.08;70.65
77011;BME280;65945;53.148;17.956;2022-12-29T11:20:35;100175.04;;;9.09;71.09
77011;BME280;65945;53.148;17.956;2022-12-29T11:28:42;100158.71;;;9.16;70.73
77011;BME280;65945;53.148;17.956;2022-12-29T11:31:10;100160.84;;;9.16;70.61
77011;BME280;65945;53.148;17.956;2022-12-29T11:33:41;100155.42;;;9.16;70.51
77011;BME280;65945;53.148;17.956;2022-12-29T11:36:18;100154.48;;;9.21;70.88
77011;BME280;65945;53.148;17.956;2022-12-29T11:38:49;100154.38;;;9.32;70.65
77011;BME280;65945;53.148;17.956;2022-12-29T11:41:28;100144.08;;;9.41;70.33
77011;BME280;65945;53.148;17.956;2022-12-29T11:44:00;100143.27;;;9.51;70.40
77011;BME280;65945;53.148;17.956;2022-12-29T11:46:31;100133.34;;;9.58;70.25
77011;BME280;65945;53.148;17.956;2022-12-29T11:48:59;100131.98;;;9.64;69.99
77011;BME280;65945;53.148;17.956;2022-12-29T11:51:30;100131.80;;;9.66;69.52
77011;BME280;65945;53.148;17.956;2022-12-29T11:53:59;100131.34;;;9.71;69.99
77011;BME280;65945;53.148;17.956;2022-12-29T11:56:42;100127.60;;;9.75;69.63
77011;BME280;65945;53.148;17.956;2022-12-29T12:01:57;100130.64;;;9.80;69.42
77011;BME280;65945;53.148;17.956;2022-12-29T12:04:30;100126.38;;;9.80;69.37
77011;BME280;65945;53.148;17.956;2022-12-29T12:07:15;100121.30;;;9.87;69.56
77011;BME280;65945;53.148;17.956;2022-12-29T12:09:47;100119.36;;;9.95;69.21
77011;BME280;65945;53.148;17.956;2022-12-29T12:12:28;100116.77;;;10.01;69.04
77011;BME280;65945;53.148;17.956;2022-12-29T12:14:58;100111.11;;;10.04;68.85
77011;BME280;65945;53.148;17.956;2022-12-29T12:17:53;100116.05;;;10.08;69.14
77011;BME280;65945;53.148;17.956;2022-12-29T12:23:16;100116.36;;;10.12;69.07
77011;BME280;65945;53.148;17.956;2022-12-29T12:25:55;100118.14;;;10.13;68.93
77011;BME280;65945;53.148;17.956;2022-12-29T12:31:49;100129.38;;;10.15;68.86
77011;BME280;65945;53.148;17.956;2022-12-29T12:34:32;100133.28;;;10.15;68.88
77011;BME280;65945;53.148;17.956;2022-12-29T12:40:01;100139.27;;;10.17;68.83
77011;BME280;65945;53.148;17.956;2022-12-29T12:48:44;100117.17;;;10.20;68.62
77011;BME280;65945;53.148;17.956;2022-12-29T12:51:39;100114.23;;;10.18;68.54
77011;BME280;65945;53.148;17.956;2022-12-29T12:57:08;100112.56;;;10.23;68.75
77011;BME280;65945;53.148;17.956;2022-12-29T13:02:15;100106.08;;;10.40;68.35
77011;BME280;65945;53.148;17.956;2022-12-29T13:10:25;100102.86;;;10.51;68.09
77011;BME280;65945;53.148;17.956;2022-12-29T13:18:52;100111.40;;;10.49;68.05
77011;BME280;65945;53.148;17.956;2022-12-29T13:24:13;100110.59;;;10.40;68.35
77011;BME280;65945;53.148;17.956;2022-12-29T13:26:48;100117.08;;;10.35;68.33
77011;BME280;65945;53.148;17.956;2022-12-29T13:29:36;100121.27;;;10.29;68.30
77011;BME280;65945;53.148;17.956;2022-12-29T13:37:20;100135.42;;;10.07;68.69
77011;BME280;65945;53.148;17.956;2022-12-29T13:39:59;100134.23;;;9.99;69.00
77011;BME280;65945;53.148;17.956;2022-12-29T13:42:29;100130.05;;;9.95;68.98
77011;BME280;65945;53.148;17.956;2022-12-29T13:45:04;100130.94;;;9.93;68.95
77011;BME280;65945;53.148;17.956;2022-12-29T13:47:40;100131.21;;;9.91;68.99
77011;BME280;65945;53.148;17.956;2022-12-29T13:50:15;100133.79;;;9.85;69.05
77011;BME280;65945;53.148;17.956;2022-12-29T13:53:01;100134.09;;;9.80;69.21
77011;BME280;65945;53.148;17.956;2022-12-29T13:56:15;100136.73;;;9.74;69.49
77011;BME280;65945;53.148;17.956;2022-12-29T13:58:57;100133.38;;;9.65;69.45
77011;BME280;65945;53.148;17.956;2022-12-29T14:04:24;100135.77;;;9.45;69.72
77011;BME280;65945;53.148;17.956;2022-12-29T14:07:16;100144.22;;;9.36;69.95
77011;BME280;65945;53.148;17.956;2022-12-29T14:09:49;100145.48;;;9.26;70.20
77011;BME280;65945;53.148;17.956;2022-12-29T14:15:15;100144.52;;;9.11;70.45
77011;BME280;65945;53.148;17.956;2022-12-29T14:18:01;100146.35;;;9.07;70.56
77011;BME280;65945;53.148;17.956;2022-12-29T14:20:29;100147.88;;;9.03;70.61
77011;BME280;65945;53.148;17.956;2022-12-29T14:23:17;100146.77;;;9.01;70.82
77011;BME280;65945;53.148;17.956;2022-12-29T14:28:40;100147.71;;;8.92;70.94
77011;BME280;65945;53.148;17.956;2022-12-29T14:36:37;100150.68;;;8.77;71.26
77011;BME280;65945;53.148;17.956;2022-12-29T14:39:25;100154.05;;;8.74;71.29
77011;BME280;65945;53.148;17.956;2022-12-29T14:42:05;100149.57;;;8.71;71.30
77011;BME280;65945;53.148;17.956;2022-12-29T14:44:33;100147.76;;;8.72;71.42
77011;BME280;65945;53.148;17.956;2022-12-29T14:47:05;100149.79;;;8.74;71.39
77011;BME280;65945;53.148;17.956;2022-12-29T14:49:40;100150.16;;;8.77;71.36
77011;BME280;65945;53.148;17.956;2022-12-29T14:52:19;100146.77;;;8.78;71.36
77011;BME280;65945;53.148;17.956;2022-12-29T14:54:52;100142.72;;;8.78;71.54
77011;BME280;65945;53.148;17.956;2022-12-29T14:57:29;100142.19;;;8.79;71.47
77011;BME280;65945;53.148;17.956;2022-12-29T15:00:06;100143.63;;;8.78;71.60
77011;BME280;65945;53.148;17.956;2022-12-29T15:02:39;100150.22;;;8.76;71.66